Pioneer Knutsen — LMIK — position and weather

sailwx.info

Track history (hours):
 
Tides and Currents Weather Stations Pressure Air Temp Water Temp Dewpoint Dewpoint Depression Visibility Wind Speed Wind Dir Waves Ship Positions

Pioneer Knutsen

Last reported at 2015-May-21 01:09 UTC. Time now 2015-May-23 05:45 UTC.
Position N 63°34' E 009°22'.

Length 70 m; draft 3.6 m.

Type: Tanker. MMSI: 259393000.

Date/timePositionNaut miles runAvg speedWind from/ knotsBaromVisibWave heightAir tempDewpointWater temp
2015-May-21 01:09N 63°34' E 009°22'710.8
2015-May-21 00:33N 63°40' E 009°28'1211.8
2015-May-20 23:34N 63°51' E 009°39'1111.3
2015-May-20 22:33N 64°02' E 009°47'5611.2
2015-May-20 17:32N 64°47' E 011°04'1212.3
2015-May-20 16:34N 64°55' E 011°24'1212.2
2015-May-20 15:33N 65°04' E 011°45'1312.4
2015-May-20 14:30N 65°16' E 011°57'1 0.1
2015-May-19 22:09N 65°15' E 011°55'610.5
2015-May-19 21:33N 65°09' E 011°50'1010.2
2015-May-19 20:33N 65°00' E 011°38'10 9.6
2015-May-19 19:33N 64°54' E 011°21'5910.9
2015-May-19 14:12N 64°07' E 010°01'812.1
2015-May-19 13:33N 64°02' E 009°47'1211.5
2015-May-19 12:33N 63°51' E 009°39'2 1.8
2015-May-19 11:29N 63°49' E 009°38'0 0.0
2015-May-19 10:29N 63°49' E 009°38'0 0.0
2015-May-19 09:25N 63°49' E 009°38'5 5.0
2015-May-19 08:29N 63°45' E 009°32'5710.5
2015-May-19 03:04N 63°12' E 007°49'48 4.1
2015-May-18 15:20N 63°35' E 009°23'1012.0
2015-May-18 14:32N 63°43' E 009°32'1212.2
2015-May-18 13:33N 63°54' E 009°46'1211.6
2015-May-18 12:33N 64°05' E 009°54'4711.5
2015-May-18 08:28N 64°44' E 010°55'1111.9
2015-May-18 07:33N 64°51' E 011°13'1211.5
2015-May-18 06:33N 64°58' E 011°34'10 0.5
2015-May-17 10:33N 64°52' E 011°17'8111.3
2015-May-17 03:26N 63°45' E 009°33'8 0.5
2015-May-16 10:30N 63°37' E 009°28'8011.3
2015-May-16 03:24N 64°46' E 011°02'1012.3
2015-May-16 02:33N 64°53' E 011°19'1312.6
2015-May-16 01:32N 65°02' E 011°42'1612.6
2015-May-16 00:14N 65°17' E 011°57'3 0.2
2015-May-15 08:24N 65°19' E 012°01'1011.9
2015-May-15 07:31N 65°10' E 011°51'1111.4
2015-May-15 06:33N 65°00' E 011°38'1111.4
2015-May-15 05:33N 64°53' E 011°18'8610.8
2015-May-14 21:33N 63°40' E 009°29'  
2015-May-11 03:31N 63°37' E 009°28'  
Track history (hours):
 
Tides and Currents Weather Stations Pressure Air Temp Water Temp Dewpoint Dewpoint Depression Visibility Wind Speed Wind Dir Waves Ship Positions

Pioneer Knutsen

Last reported at 2015-May-21 01:09 UTC. Time now 2015-May-23 05:45 UTC.
Position N 63°34' E 009°22'.

Length 70 m; draft 3.6 m.

Type: Tanker. MMSI: 259393000.

Date/timePositionNaut miles runAvg speedWind from/ knotsBaromVisibWave heightAir tempDewpointWater temp
2015-May-21 01:09N 63°34' E 009°22'710.8
2015-May-21 00:33N 63°40' E 009°28'1211.8
2015-May-20 23:34N 63°51' E 009°39'1111.3
2015-May-20 22:33N 64°02' E 009°47'5611.2
2015-May-20 17:32N 64°47' E 011°04'1212.3
2015-May-20 16:34N 64°55' E 011°24'1212.2
2015-May-20 15:33N 65°04' E 011°45'1312.4
2015-May-20 14:30N 65°16' E 011°57'1 0.1
2015-May-19 22:09N 65°15' E 011°55'610.5
2015-May-19 21:33N 65°09' E 011°50'1010.2
2015-May-19 20:33N 65°00' E 011°38'10 9.6
2015-May-19 19:33N 64°54' E 011°21'5910.9
2015-May-19 14:12N 64°07' E 010°01'812.1
2015-May-19 13:33N 64°02' E 009°47'1211.5
2015-May-19 12:33N 63°51' E 009°39'2 1.8
2015-May-19 11:29N 63°49' E 009°38'0 0.0
2015-May-19 10:29N 63°49' E 009°38'0 0.0
2015-May-19 09:25N 63°49' E 009°38'5 5.0
2015-May-19 08:29N 63°45' E 009°32'5710.5
2015-May-19 03:04N 63°12' E 007°49'48 4.1
2015-May-18 15:20N 63°35' E 009°23'1012.0
2015-May-18 14:32N 63°43' E 009°32'1212.2
2015-May-18 13:33N 63°54' E 009°46'1211.6
2015-May-18 12:33N 64°05' E 009°54'4711.5
2015-May-18 08:28N 64°44' E 010°55'1111.9
2015-May-18 07:33N 64°51' E 011°13'1211.5
2015-May-18 06:33N 64°58' E 011°34'10 0.5
2015-May-17 10:33N 64°52' E 011°17'8111.3
2015-May-17 03:26N 63°45' E 009°33'8 0.5
2015-May-16 10:30N 63°37' E 009°28'8011.3
2015-May-16 03:24N 64°46' E 011°02'1012.3
2015-May-16 02:33N 64°53' E 011°19'1312.6
2015-May-16 01:32N 65°02' E 011°42'1612.6
2015-May-16 00:14N 65°17' E 011°57'3 0.2
2015-May-15 08:24N 65°19' E 012°01'1011.9
2015-May-15 07:31N 65°10' E 011°51'1111.4
2015-May-15 06:33N 65°00' E 011°38'1111.4
2015-May-15 05:33N 64°53' E 011°18'8610.8
2015-May-14 21:33N 63°40' E 009°29'  
2015-May-11 03:31N 63°37' E 009°28'  

Dump ship's entire track history